Station NJLC1 - 9418768 - North Jetty Landing, CA Image indicating link to RSS feed of recent meteorological observations for station NJLC1


Conditions at NJLC1 as of
(11:30 pm PDT on 04/22/2024)
0630 GMT on 04/23/2024:
     

Click on the graph icon in the table below to see a time series plot of the last five days of that observation.

5-day plot - Wind Direction Wind Direction (WDIR):SSW ( 210 deg true )
5-day plot - Wind Speed Wind Speed (WSPD): 15.9 kts
5-day plot - Wind Gust Wind Gust (GST): 19.0 kts
5-day plot - Air Temperature Air Temperature (ATMP): 50.5 °F
5-day plot - Wind Chill Wind Chill (CHILL): 44.6 °F
5-day plot - Wind Speed at 10 Meters Wind Speed at 10 meters (WSPD10M): 15.5 kts
5-day plot - Wind Speed at 20 Meters Wind Speed at 20 meters (WSPD20M): 17.5 kts
5-day plot -  Wind Speed, Wind Gust and Atmospheric Pressure Combined plot of Wind Speed, Gust, and Air Pressure
NOS Water Level Observation Network Water Level
Previous observations
TIME
(PDT)
5-day plot - Wind Direction
WDIR
 
5-day plot - Wind Speed
WSPD
kts
5-day plot - Wind Gust
GST
kts
5-day plot - Wave Height
WVHT
ft
5-day plot - Dominant Wave Period
DPD
sec
5-day plot - Average Wave Period
APD
sec
5-day plot - Mean Wave Direction
MWD
 
5-day plot - Atmospheric Pressure
PRES
in
5-day plot - Pressure Tendency
PTDY
in
5-day plot - Air Temperature
ATMP
°F
5-day plot - Water Temperature
WTMP
°F
5-day plot - Dew Point
DEWP
°F
5-day plot - Salinity
SAL
psu
5-day plot - Visibility
VIS
nmi
5-day plot - Tide (above MLLW)
TIDE
ft
2024-04-22 11:24 pmSSW 15.9 20.0------ 50.7-----
2024-04-22 11:12 pm SW 14.0 17.1------ 50.9-----
2024-04-22 11:06 pmSSW 14.0 15.0------ 51.1-----
2024-04-22 10:54 pmSSW 12.0 14.0------ 50.9-----
2024-04-22 10:42 pmSSW 12.0 13.0------ 50.7-----
2024-04-22 10:30 pmSSW 12.0 13.0------ 50.5-----
2024-04-22 10:24 pmSSW 11.1 11.1------ 50.5-----
2024-04-22 10:18 pmSSW 9.9 12.0------ 50.5-----
2024-04-22 10:12 pm SW 9.9 12.0------ 50.7-----
2024-04-22 10:06 pm SW 8.9 11.1------ 50.7-----
2024-04-22 10:00 pm SW 8.9 12.0------ 50.5-----
2024-04-22 09:54 pm SW 9.9 12.0------ 50.5-----
2024-04-22 09:48 pm SW 9.9 11.1------ 50.7-----
2024-04-22 09:42 pm SW 8.9 12.0------ 50.7-----
2024-04-22 09:36 pm SW 9.9 12.0------ 50.7-----
2024-04-22 09:30 pm SW 8.0 9.9------ 50.7-----
2024-04-22 09:24 pm SW 8.0 8.9------ 50.7-----
2024-04-22 09:18 pm SW 7.0 8.0------------
2024-04-22 09:12 pmWSW 7.0 8.0------ 50.9-----
2024-04-22 09:06 pmWSW 7.0 8.9------ 50.9-----
2024-04-22 09:00 pmWSW 8.0 8.9------ 51.1-----
2024-04-22 08:54 pmWSW 7.0 8.0------ 51.1-----
2024-04-22 08:48 pmWSW 7.0 7.0------------
2024-04-22 08:42 pmWSW 6.0 6.0------ 51.1-----
2024-04-22 08:36 pm W 6.0 6.0------ 51.3-----
2024-04-22 08:30 pm W 6.0 6.0------ 51.3-----
2024-04-22 08:24 pmWSW 5.1 5.1------ 51.3-----
2024-04-22 08:18 pm W 5.1 5.1------------
2024-04-22 08:12 pm W 5.1 5.1------ 51.3-----
2024-04-22 08:06 pm W 5.1 6.0------ 51.3-----
2024-04-22 08:00 pm W 6.0 6.0------ 51.4-----
2024-04-22 07:54 pmWSW 6.0 7.0------ 51.6-----
2024-04-22 07:48 pmWSW 6.0 7.0------ 51.6-----
2024-04-22 07:42 pm W 7.0 7.0------ 51.6-----
2024-04-22 07:36 pm W 6.0 6.0------ 51.8-----
2024-04-22 07:30 pm W 6.0 6.0------ 52.0-----
2024-04-22 07:24 pm W 6.0 6.0------ 52.2-----
2024-04-22 07:18 pm W 6.0 6.0------ 52.3-----
2024-04-22 07:12 pm W 6.0 6.0------ 52.5-----
2024-04-22 07:06 pmWSW 5.1 6.0------ 54.1-----
2024-04-22 07:00 pmWSW 4.1 5.1------ 54.3-----
2024-04-22 06:54 pmWSW 4.1 5.1------ 54.0-----
2024-04-22 06:48 pmWSW 5.1 5.1------ 53.4-----
2024-04-22 06:36 pmWSW 2.9 4.1------ 53.6-----
2024-04-22 06:24 pm W 2.9 4.1------ 53.2-----
2024-04-22 06:18 pm W 2.9 4.1------------
2024-04-22 06:12 pmWNW 4.1 5.1------------
2024-04-22 06:00 pmWNW 4.1 5.1------ 54.7-----
2024-04-22 05:54 pmWNW 5.1 5.1------ 54.7-----
2024-04-22 05:48 pmWNW 2.9 4.1------------
2024-04-22 05:42 pmWNW 2.9 4.1------------
2024-04-22 05:36 pmWNW 2.9 4.1------------
2024-04-22 05:30 pmWNW 4.1 5.1------ 55.8-----
2024-04-22 05:24 pmWNW 4.1 5.1------ 55.6-----
2024-04-22 05:18 pm--------- 55.4-----
2024-04-22 05:12 pm--------- 54.7-----
2024-04-22 05:06 pm--------- 55.0-----
2024-04-22 05:00 pmWNW 4.1 4.1------ 55.8-----
2024-04-22 04:54 pmWNW 4.1 5.1------ 55.8-----
2024-04-22 04:48 pmWNW 4.1 5.1------ 55.6-----
2024-04-22 04:42 pmWNW 5.1 6.0------ 54.5-----
2024-04-22 04:30 pmWNW 6.0 7.0------ 54.5-----
2024-04-22 04:24 pmWNW 6.0 8.0------ 54.5-----
2024-04-22 04:12 pm NW 7.0 8.0------ 54.0-----
2024-04-22 04:06 pm NW 7.0 7.0------ 54.3-----
2024-04-22 04:00 pmWNW 6.0 6.0------ 54.5-----
2024-04-22 03:54 pmWNW 5.1 6.0------ 54.5-----
2024-04-22 03:48 pm NW 5.1 5.1------------
2024-04-22 03:42 pm NW 5.1 6.0------ 52.9-----
2024-04-22 03:36 pmNNW 4.1 5.1------ 52.9-----
2024-04-22 03:30 pmNNW 4.1 5.1------ 52.7-----
2024-04-22 03:24 pmNNW 4.1 5.1------ 52.7-----
2024-04-22 03:18 pmNNW 5.1 6.0------------
2024-04-22 03:12 pm NW 5.1 6.0------ 52.7-----
2024-04-22 03:06 pmNNW 5.1 6.0------ 52.7-----
2024-04-22 03:00 pmNNW 5.1 5.1------ 52.7-----
2024-04-22 02:54 pm NW 5.1 5.1------ 52.9-----
2024-04-22 02:48 pm NW 4.1 5.1------------
2024-04-22 02:42 pm NW 4.1 6.0------ 54.0-----
2024-04-22 02:36 pm NW 5.1 6.0------ 53.8-----
2024-04-22 02:30 pm NW 5.1 6.0------ 53.2-----
2024-04-22 02:24 pm NW 5.1 6.0------ 54.3-----
2024-04-22 02:18 pmWNW 5.1 5.1------ 55.2-----
2024-04-22 02:12 pmWNW 5.1 5.1------ 54.9-----
2024-04-22 02:06 pm NW 5.1 5.1------ 54.3-----
2024-04-22 02:00 pmWNW 4.1 5.1------ 54.3-----
2024-04-22 01:54 pm NW 4.1 5.1------ 53.6-----
2024-04-22 01:48 pm NW 5.1 5.1------ 52.3-----
2024-04-22 01:42 pmNNW 6.0 9.9------ 52.3-----
2024-04-22 01:36 pmNNW 11.1 12.0------ 52.5-----
2024-04-22 01:30 pmNNW 9.9 11.1------ 52.3-----
2024-04-22 01:24 pmNNW 9.9 9.9------ 52.2-----
2024-04-22 01:18 pmNNW 9.9 9.9------ 52.2-----
2024-04-22 01:12 pmNNW 8.9 8.9------ 51.8-----
2024-04-22 01:06 pmNNW 8.0 9.9------ 51.8-----
2024-04-22 01:00 pmNNW 9.9 9.9------ 51.4-----
2024-04-22 12:54 pmNNW 8.9 8.9------ 51.4-----
2024-04-22 12:48 pmNNW 8.0 8.0------ 51.3-----
2024-04-22 12:42 pmNNW 7.0 7.0------ 51.1-----
2024-04-22 12:36 pmNNW 7.0 8.0------ 51.1-----
2024-04-22 12:30 pmNNW 7.0 8.0------ 50.9-----
2024-04-22 12:24 pm NW 8.0 8.0------ 50.7-----
2024-04-22 12:18 pm NW 8.0 8.9------------
2024-04-22 12:12 pmNNW 8.0 8.9------ 50.7-----
2024-04-22 12:06 pmNNW 8.9 9.9------ 50.5-----
2024-04-22 12:00 pmNNW 9.9 11.1------ 50.5-----
2024-04-22 11:54 amNNW 9.9 9.9------ 50.4-----
2024-04-22 11:48 amNNW 8.0 8.9------------
2024-04-22 11:42 amNNW 8.0 8.9------ 50.0-----
2024-04-22 11:36 amNNW 8.0 8.0------ 49.8-----
2024-04-22 11:30 amNNW 8.0 8.0------ 49.8-----
2024-04-22 11:24 amNNW 7.0 8.0------ 49.6-----
2024-04-22 11:18 amNNW 7.0 8.0------ 49.5-----
2024-04-22 11:12 amNNW 7.0 8.0------ 49.5-----
2024-04-22 11:06 amNNW 8.0 8.0------ 49.3-----
2024-04-22 11:00 amNNW 7.0 8.0------ 49.3-----
2024-04-22 10:54 amNNW 7.0 8.0------ 49.1-----
2024-04-22 10:48 amNNW 6.0 7.0------ 49.1-----
2024-04-22 10:42 amNNW 7.0 7.0------ 48.9-----
2024-04-22 10:36 amNNW 6.0 7.0------ 48.9-----
2024-04-22 10:30 amNNW 5.1 6.0------ 48.7-----
2024-04-22 10:24 amNNW 6.0 6.0------ 48.6-----
2024-04-22 10:18 am N 5.1 6.0------ 48.4-----
2024-04-22 10:12 am N 6.0 6.0------ 48.2-----
2024-04-22 10:06 am N 5.1 6.0------ 48.2-----
2024-04-22 10:00 am N 6.0 7.0------ 48.2-----
2024-04-22 09:54 am N 6.0 7.0------ 48.2-----
2024-04-22 09:48 am N 5.1 6.0------------
2024-04-22 09:42 am N 5.1 6.0------ 48.2-----
2024-04-22 09:36 am N 5.1 5.1------ 48.0-----
2024-04-22 09:30 am N 5.1 5.1------ 48.0-----
2024-04-22 09:24 am N 5.1 5.1------ 47.8-----
2024-04-22 09:18 am N 5.1 5.1------------
2024-04-22 09:12 am N 2.9 4.1------ 47.8-----
2024-04-22 09:06 am N 2.9 2.9------ 47.7-----
2024-04-22 09:00 amNNE 1.9 2.9------ 47.7-----
2024-04-22 08:54 amNNE 1.9 2.9------ 47.5-----
2024-04-22 08:42 am N 2.9 2.9------ 46.9-----
2024-04-22 08:36 amNNE 1.9 2.9------ 47.1-----
2024-04-22 08:30 amNNE 1.9 2.9------ 46.9-----
2024-04-22 08:24 am NE 2.9 2.9------ 46.9-----
2024-04-22 08:18 amENE 2.9 2.9------------
2024-04-22 08:12 amENE 2.9 4.1------ 46.2-----
2024-04-22 08:06 amENE 2.9 2.9------ 46.0-----
2024-04-22 08:00 am E 2.9 5.1------ 45.5-----
2024-04-22 07:54 am E 4.1 5.1------ 45.3-----
2024-04-22 07:48 am E 4.1 5.1------ 45.1-----
2024-04-22 07:42 am E 4.1 5.1------ 44.8-----
2024-04-22 07:36 am E 4.1 5.1------ 44.6-----
2024-04-22 07:30 am E 4.1 4.1------ 44.8-----
2024-04-22 07:24 amENE 2.9 4.1------ 44.8-----
2024-04-22 07:18 am E 2.9 2.9------ 45.1-----
2024-04-22 07:12 am E 1.9 4.1------ 45.0-----
2024-04-22 07:06 am E 2.9 5.1------ 44.8-----
2024-04-22 07:00 am E 2.9 4.1------ 44.8-----
2024-04-22 06:54 amESE 2.9 4.1------ 44.6-----
2024-04-22 06:48 amESE 2.9 4.1------ 44.6-----
2024-04-22 06:42 am E 2.9 4.1------ 44.1-----
2024-04-22 06:36 am E 4.1 5.1------ 44.1-----
2024-04-22 06:30 am E 5.1 5.1------ 44.2-----
2024-04-22 06:24 am E 5.1 6.0------ 44.4-----
2024-04-22 06:18 amESE 4.1 5.1------------
2024-04-22 06:12 amESE 5.1 5.1------ 44.2-----
2024-04-22 06:06 amESE 5.1 6.0------ 43.9-----
2024-04-22 06:00 am E 5.1 6.0------ 44.2-----
2024-04-22 05:54 am E 4.1 5.1------ 44.4-----
2024-04-22 05:48 am E 5.1 5.1------------
2024-04-22 05:42 am E 4.1 5.1------ 44.8-----
2024-04-22 05:36 am E 4.1 4.1------ 44.6-----
2024-04-22 05:30 amESE 4.1 5.1------ 44.6-----
2024-04-22 05:24 amESE 4.1 5.1------ 44.6-----
2024-04-22 05:18 amESE 5.1 6.0------------
2024-04-22 05:12 amESE 5.1 6.0------ 44.2-----
2024-04-22 05:06 amESE 5.1 5.1------ 44.2-----
2024-04-22 05:00 amESE 4.1 6.0------ 44.4-----
2024-04-22 04:54 amESE 6.0 6.0------ 44.2-----
2024-04-22 04:48 am E 5.1 5.1------------
2024-04-22 04:42 am E 4.1 5.1------ 44.8-----
2024-04-22 04:36 am E 4.1 5.1------ 44.8-----
2024-04-22 04:30 amESE 4.1 5.1------ 44.4-----
2024-04-22 04:24 amESE 4.1 5.1------ 44.4-----
2024-04-22 04:18 amESE 4.1 5.1------ 44.4-----
2024-04-22 04:12 am E 4.1 5.1------ 44.4-----
2024-04-22 04:06 am E 4.1 4.1------ 44.6-----
2024-04-22 04:00 am E 4.1 4.1------ 44.8-----
2024-04-22 03:54 am E 2.9 4.1------ 45.3-----
2024-04-22 03:48 amESE 2.9 4.1------ 45.5-----
2024-04-22 03:42 amESE 2.9 4.1------ 45.7-----
2024-04-22 03:36 amESE 4.1 4.1------ 45.5-----
2024-04-22 03:30 am E 2.9 4.1------ 45.3-----
2024-04-22 03:24 am E 4.1 4.1------ 45.1-----
2024-04-22 03:18 am E 2.9 2.9------ 45.3-----
2024-04-22 03:12 amESE 2.9 4.1------ 45.1-----
2024-04-22 03:06 am E 2.9 4.1------ 45.1-----
2024-04-22 03:00 amESE 2.9 4.1------ 45.0-----
2024-04-22 02:54 amESE 4.1 5.1------ 45.0-----
2024-04-22 02:48 amESE 5.1 6.0------ 44.6-----
2024-04-22 02:42 amESE 5.1 5.1------ 44.8-----
2024-04-22 02:36 amESE 5.1 5.1------ 45.0-----
2024-04-22 02:30 am E 5.1 6.0------ 44.8-----
2024-04-22 02:24 am E 5.1 6.0------ 44.8-----
2024-04-22 02:18 am E 5.1 6.0------------
2024-04-22 02:12 am E 5.1 5.1------ 45.3-----
2024-04-22 02:06 amESE 5.1 5.1------ 45.5-----
2024-04-22 02:00 amESE 4.1 5.1------ 45.3-----
2024-04-22 01:54 amESE 4.1 5.1------ 45.3-----
2024-04-22 01:48 amESE 4.1 5.1------------
2024-04-22 01:42 am E 4.1 5.1------ 45.9-----
2024-04-22 01:36 am E 1.9 2.9------ 46.2-----
2024-04-22 01:30 amESE 1.9 2.9------ 46.6-----
2024-04-22 01:24 amESE 1.9 2.9------ 46.8-----
2024-04-22 01:18 am SE 1.9 2.9------------
2024-04-22 01:12 am SE 1.9 2.9------ 47.3-----
2024-04-22 01:06 amESE 2.9 4.1------ 47.3-----
2024-04-22 01:00 amSSE 4.1 5.1------ 48.4-----
2024-04-22 12:54 am S 4.1 5.1------ 48.6-----
2024-04-22 12:48 am S 5.1 6.0------ 48.6-----
2024-04-22 12:42 am S 5.1 6.0------ 48.4-----
2024-04-22 12:36 am S 5.1 6.0------ 48.4-----
2024-04-22 12:30 am S 6.0 8.0------ 48.4-----
2024-04-22 12:24 am S 7.0 8.0------ 48.4-----
2024-04-22 12:18 am S 7.0 8.9------ 48.4-----
2024-04-22 12:12 am S 7.0 8.9------ 48.4-----
2024-04-22 12:06 am S 8.0 8.9------ 48.4-----
2024-04-22 12:00 am S 8.0 8.9------ 48.6-----